createdAt,value
2022-10-02T00:00:07.286Z,3.03
2022-10-02T00:01:27.681Z,2.93
2022-10-02T00:03:08.604Z,3.37
2022-10-02T00:04:22.862Z,3.50
2022-10-02T00:05:36.252Z,2.90
2022-10-02T00:06:48.622Z,3.03
2022-10-02T00:08:04.688Z,3.07
2022-10-02T00:09:20.625Z,2.67
2022-10-02T00:10:37.521Z,3.37
2022-10-02T00:11:50.325Z,3.00
2022-10-02T00:13:03.361Z,3.90
2022-10-02T00:14:20.062Z,3.27
2022-10-02T00:15:32.517Z,4.00
2022-10-02T00:16:47.089Z,3.13
2022-10-02T00:18:01.738Z,2.37
2022-10-02T00:19:16.590Z,3.10
2022-10-02T00:20:31.168Z,4.00
2022-10-02T00:21:45.721Z,2.73
2022-10-02T00:22:57.122Z,4.30
2022-10-02T00:24:11.889Z,3.23
2022-10-02T00:25:29.060Z,3.23
2022-10-02T00:26:52.827Z,3.27
2022-10-02T00:28:04.293Z,3.27
2022-10-02T00:29:15.843Z,3.47
2022-10-02T00:30:29.331Z,4.27
2022-10-02T00:31:41.583Z,2.83
2022-10-02T00:32:53.038Z,2.83
2022-10-02T00:34:19.835Z,2.93
2022-10-02T00:35:37.493Z,3.17
2022-10-02T00:37:14.201Z,2.80
2022-10-02T00:38:31.496Z,3.13
2022-10-02T00:39:55.009Z,3.90
2022-10-02T00:41:25.239Z,3.07
2022-10-02T00:42:55.551Z,3.80
2022-10-02T00:44:17.633Z,3.87
2022-10-02T00:45:47.487Z,3.27
2022-10-02T00:47:10.869Z,3.00
2022-10-02T00:48:37.523Z,2.93
2022-10-02T00:50:15.857Z,3.20
2022-10-02T00:51:39.408Z,3.37
2022-10-02T00:52:59.986Z,3.13
2022-10-02T00:54:31.672Z,2.47
2022-10-02T00:55:49.114Z,2.37
2022-10-02T00:57:00.559Z,3.27
2022-10-02T00:58:21.280Z,2.90
2022-10-02T00:59:35.533Z,3.00
2022-10-02T01:01:16.526Z,3.47
2022-10-02T01:02:30.890Z,3.20
2022-10-02T01:03:44.310Z,3.83
2022-10-02T01:04:56.178Z,3.30
2022-10-02T01:06:08.229Z,3.00
2022-10-02T01:07:19.678Z,3.67
2022-10-02T01:08:31.383Z,3.03
2022-10-02T01:09:42.978Z,3.47
2022-10-02T01:10:54.710Z,3.03
2022-10-02T01:12:06.842Z,3.77
2022-10-02T01:13:18.291Z,2.77
2022-10-02T01:14:36.856Z,3.87
2022-10-02T01:15:51.365Z,2.83
2022-10-02T01:17:03.554Z,3.57
2022-10-02T01:18:15.217Z,2.70
2022-10-02T01:19:31.917Z,3.23
2022-10-02T01:20:54.535Z,2.83
2022-10-02T01:22:22.326Z,2.77
2022-10-02T01:23:39.588Z,2.70
2022-10-02T01:24:54.696Z,2.50
2022-10-02T01:26:06.339Z,2.13
2022-10-02T01:27:17.892Z,2.90
2022-10-02T01:28:29.523Z,2.23
2022-10-02T01:29:41.764Z,2.80
2022-10-02T01:30:55.576Z,2.57
2022-10-02T01:32:07.161Z,2.40
2022-10-02T01:33:18.693Z,2.93
2022-10-02T01:34:30.449Z,3.20
2022-10-02T01:35:42.394Z,2.70
2022-10-02T01:36:54.307Z,3.17
2022-10-02T01:38:07.741Z,3.17
2022-10-02T01:39:19.297Z,3.27
2022-10-02T01:40:34.461Z,3.23
2022-10-02T01:41:45.954Z,2.90
2022-10-02T01:43:08.677Z,3.37
2022-10-02T01:44:20.138Z,3.13
2022-10-02T01:45:50.167Z,2.33
2022-10-02T01:47:23.798Z,2.57
2022-10-02T01:48:41.091Z,2.97
2022-10-02T01:49:55.594Z,2.80
2022-10-02T01:51:22.114Z,3.07
2022-10-02T01:52:33.568Z,2.37
2022-10-02T01:53:49.001Z,2.80
2022-10-02T01:55:09.268Z,2.73
2022-10-02T01:56:20.725Z,2.70
2022-10-02T01:57:40.764Z,2.63
2022-10-02T01:58:58.420Z,2.07
2022-10-02T02:00:11.358Z,2.47
2022-10-02T02:01:33.997Z,3.00
2022-10-02T02:02:49.051Z,2.67
2022-10-02T02:04:00.475Z,2.63
2022-10-02T02:05:14.934Z,2.97
2022-10-02T02:06:48.411Z,2.60
2022-10-02T02:08:08.897Z,3.00
2022-10-02T02:09:32.519Z,2.80
2022-10-02T02:10:48.686Z,2.30
2022-10-02T02:12:15.242Z,2.83
2022-10-02T02:13:45.262Z,3.00
2022-10-02T02:15:00.427Z,2.77
2022-10-02T02:16:11.924Z,2.27
2022-10-02T02:17:23.371Z,2.27
2022-10-02T02:18:34.781Z,2.17
2022-10-02T02:19:52.358Z,2.57
2022-10-02T02:21:06.646Z,3.30
2022-10-02T02:22:22.487Z,1.90
2022-10-02T02:23:36.271Z,2.57
2022-10-02T02:24:52.423Z,2.57
2022-10-02T02:26:06.603Z,2.57
2022-10-02T02:27:19.885Z,2.67
2022-10-02T02:28:32.588Z,2.67
2022-10-02T02:29:46.267Z,2.37
2022-10-02T02:30:59.031Z,2.50
2022-10-02T02:32:13.501Z,2.77
2022-10-02T02:33:27.229Z,2.30
2022-10-02T02:34:42.112Z,2.33
2022-10-02T02:35:55.691Z,2.10
2022-10-02T02:37:08.482Z,2.40
2022-10-02T02:38:24.971Z,2.53
2022-10-02T02:39:56.637Z,2.00
2022-10-02T02:41:13.166Z,2.03
2022-10-02T02:42:26.419Z,2.13
2022-10-02T02:43:49.859Z,2.20
2022-10-02T02:45:04.621Z,3.00
2022-10-02T02:46:20.778Z,2.93
2022-10-02T02:47:40.296Z,1.97
2022-10-02T02:48:54.704Z,3.50
2022-10-02T02:50:12.515Z,3.13
2022-10-02T02:51:28.171Z,2.33
2022-10-02T02:52:42.541Z,2.30
2022-10-02T02:53:57.754Z,2.80
2022-10-02T02:55:17.961Z,3.00
2022-10-02T02:56:29.812Z,3.30
2022-10-02T02:57:47.371Z,2.93
2022-10-02T02:59:01.685Z,3.00
2022-10-02T03:00:15.671Z,3.23
2022-10-02T03:01:27.278Z,2.83
2022-10-02T03:02:38.774Z,2.57
2022-10-02T03:03:50.254Z,3.43
2022-10-02T03:05:01.756Z,2.77
2022-10-02T03:06:16.164Z,2.73
2022-10-02T03:07:27.646Z,2.20
2022-10-02T03:08:39.122Z,2.60
2022-10-02T03:10:12.294Z,2.37
2022-10-02T03:11:23.717Z,2.20
2022-10-02T03:12:43.231Z,2.20
2022-10-02T03:14:13.473Z,2.30
2022-10-02T03:15:29.546Z,2.00
2022-10-02T03:16:44.040Z,2.20
2022-10-02T03:18:16.613Z,2.30
2022-10-02T03:19:37.196Z,2.33
2022-10-02T03:21:06.770Z,2.17
2022-10-02T03:22:27.581Z,2.17
2022-10-02T03:23:41.790Z,2.67
2022-10-02T03:25:08.184Z,2.10
2022-10-02T03:26:38.411Z,1.67
2022-10-02T03:27:57.222Z,2.03
2022-10-02T03:29:12.369Z,1.80
2022-10-02T03:30:24.715Z,1.93
2022-10-02T03:31:36.377Z,2.90
2022-10-02T03:32:48.978Z,2.37
2022-10-02T03:34:01.370Z,1.80
2022-10-02T03:35:13.317Z,2.10
2022-10-02T03:36:25.427Z,2.77
2022-10-02T03:37:36.937Z,2.40
2022-10-02T03:38:57.022Z,1.97
2022-10-02T03:40:12.662Z,2.10
2022-10-02T03:41:24.110Z,2.10
2022-10-02T03:42:36.110Z,2.53
2022-10-02T03:43:47.574Z,2.00
2022-10-02T03:44:59.022Z,2.10
2022-10-02T03:46:11.507Z,2.70
2022-10-02T03:47:23.024Z,2.33
2022-10-02T03:48:34.521Z,2.00
2022-10-02T03:49:46.482Z,1.93
2022-10-02T03:50:59.021Z,2.57
2022-10-02T03:52:17.232Z,2.27
2022-10-02T03:53:35.657Z,2.30
2022-10-02T03:54:49.256Z,2.03
2022-10-02T03:56:08.681Z,1.97
2022-10-02T03:57:21.969Z,2.00
2022-10-02T03:58:34.138Z,2.33
2022-10-02T04:00:09.446Z,2.00
2022-10-02T04:01:25.790Z,2.07
2022-10-02T04:03:09.563Z,2.30
2022-10-02T04:04:26.948Z,2.13
2022-10-02T04:05:53.467Z,2.00
2022-10-02T04:07:06.373Z,1.90
2022-10-02T04:08:36.370Z,1.90
2022-10-02T04:09:55.027Z,2.00
2022-10-02T04:11:28.170Z,2.07
2022-10-02T04:12:41.943Z,2.33
2022-10-02T04:13:57.910Z,2.27
2022-10-02T04:15:09.576Z,2.33
2022-10-02T04:16:21.026Z,2.47
2022-10-02T04:17:32.474Z,1.90
2022-10-02T04:18:52.133Z,2.47
2022-10-02T04:20:06.844Z,2.60
2022-10-02T04:21:37.270Z,2.20
2022-10-02T04:22:51.975Z,2.67
2022-10-02T04:24:09.291Z,2.67
2022-10-02T04:25:22.155Z,2.60
2022-10-02T04:26:36.257Z,2.93
2022-10-02T04:27:51.109Z,2.70
2022-10-02T04:29:24.298Z,2.50
2022-10-02T04:30:35.735Z,2.73
2022-10-02T04:31:51.013Z,2.50
2022-10-02T04:33:10.371Z,2.30
2022-10-02T04:34:21.910Z,3.27
2022-10-02T04:35:38.040Z,3.40
2022-10-02T04:37:04.862Z,2.20
2022-10-02T04:38:29.196Z,2.60
2022-10-02T04:39:46.947Z,1.70
2022-10-02T04:41:31.013Z,2.67
2022-10-02T04:43:11.634Z,2.40
2022-10-02T04:44:43.330Z,3.60
2022-10-02T04:45:54.805Z,2.87
2022-10-02T04:47:25.120Z,2.50
2022-10-02T04:48:43.033Z,2.23
2022-10-02T04:50:06.602Z,2.43
2022-10-02T04:51:23.886Z,2.33
2022-10-02T04:52:41.243Z,1.70
2022-10-02T04:53:52.827Z,1.77
2022-10-02T04:55:07.338Z,2.60
2022-10-02T04:56:21.617Z,2.50
2022-10-02T04:57:51.614Z,2.13
2022-10-02T04:59:07.901Z,2.47
2022-10-02T05:00:23.671Z,2.33
2022-10-02T05:01:54.321Z,2.60
2022-10-02T05:03:16.096Z,2.83
2022-10-02T05:04:27.575Z,2.77
2022-10-02T05:05:57.557Z,2.60
2022-10-02T05:07:15.344Z,1.90
2022-10-02T05:08:38.870Z,1.70
2022-10-02T05:09:53.547Z,1.63
2022-10-02T05:11:17.246Z,2.20
2022-10-02T05:12:47.387Z,2.03
2022-10-02T05:14:20.281Z,2.00
2022-10-02T05:15:34.831Z,1.70
2022-10-02T05:17:24.986Z,2.17
2022-10-02T05:18:55.191Z,1.70
2022-10-02T05:20:29.460Z,1.73
2022-10-02T05:21:59.671Z,1.37
2022-10-02T05:23:14.120Z,2.50
2022-10-02T05:24:35.038Z,1.90
2022-10-02T05:25:46.464Z,2.20
2022-10-02T05:27:09.751Z,2.60
2022-10-02T05:28:21.365Z,2.20
2022-10-02T05:29:38.757Z,2.73
2022-10-02T05:30:53.373Z,2.03
2022-10-02T05:32:32.123Z,1.80
2022-10-02T05:33:47.511Z,2.33
2022-10-02T05:35:20.807Z,2.13
2022-10-02T05:36:50.734Z,2.03
2022-10-02T05:38:11.173Z,2.50
2022-10-02T05:39:25.663Z,2.13
2022-10-02T05:40:43.449Z,2.27
2022-10-02T05:41:54.869Z,2.83
2022-10-02T05:43:09.738Z,2.23
2022-10-02T05:44:35.853Z,2.10
2022-10-02T05:45:50.212Z,2.33
2022-10-02T05:47:07.195Z,2.10
2022-10-02T05:48:30.628Z,2.37
2022-10-02T05:49:48.894Z,2.13
2022-10-02T05:51:06.248Z,1.90
2022-10-02T05:52:37.982Z,2.33
2022-10-02T05:53:50.023Z,2.20
2022-10-02T05:55:04.402Z,2.10
2022-10-02T05:56:25.426Z,2.00
2022-10-02T05:57:41.484Z,1.83
2022-10-02T05:59:03.924Z,1.50
2022-10-02T06:00:31.421Z,1.77
2022-10-02T06:01:47.347Z,1.90
2022-10-02T06:03:16.882Z,1.70
2022-10-02T06:04:28.582Z,2.20
2022-10-02T06:05:57.009Z,1.03
2022-10-02T06:07:09.655Z,1.47
2022-10-02T06:08:31.638Z,1.23
2022-10-02T06:10:12.485Z,1.70
2022-10-02T06:11:30.297Z,1.17
2022-10-02T06:12:53.618Z,1.83
2022-10-02T06:14:14.567Z,1.93
2022-10-02T06:15:28.802Z,2.03
2022-10-02T06:16:53.444Z,2.13
2022-10-02T06:18:10.515Z,2.00
2022-10-02T06:19:25.875Z,1.50
2022-10-02T06:20:52.012Z,1.50
2022-10-02T06:22:08.899Z,1.40
2022-10-02T06:23:41.145Z,1.63
2022-10-02T06:24:56.753Z,1.60
2022-10-02T06:26:12.973Z,2.07
2022-10-02T06:27:38.943Z,1.63
2022-10-02T06:28:56.725Z,1.50
2022-10-02T06:30:12.713Z,1.90
2022-10-02T06:31:40.582Z,2.00
2022-10-02T06:33:12.297Z,1.70
2022-10-02T06:34:23.777Z,1.50
2022-10-02T06:35:38.264Z,1.80
2022-10-02T06:36:55.723Z,1.80
2022-10-02T06:38:10.865Z,1.90
2022-10-02T06:39:25.379Z,2.33
2022-10-02T06:40:42.735Z,1.87
2022-10-02T06:42:14.906Z,2.30
2022-10-02T06:43:29.086Z,2.23
2022-10-02T06:44:40.663Z,2.80
2022-10-02T06:45:53.331Z,3.30
2022-10-02T06:47:04.967Z,2.33
2022-10-02T06:48:22.983Z,3.07
2022-10-02T06:49:43.240Z,2.67
2022-10-02T06:51:06.567Z,2.30
2022-10-02T06:52:38.520Z,3.20
2022-10-02T06:54:11.848Z,2.60
2022-10-02T06:55:36.618Z,2.60
2022-10-02T06:57:03.316Z,2.40
2022-10-02T06:58:14.854Z,2.03
2022-10-02T06:59:49.545Z,2.70
2022-10-02T07:01:16.236Z,2.63
2022-10-02T07:02:27.742Z,2.03
2022-10-02T07:03:39.914Z,2.73
2022-10-02T07:04:51.735Z,2.43
2022-10-02T07:06:16.307Z,2.40
2022-10-02T07:07:27.791Z,2.47
2022-10-02T07:08:51.720Z,2.30
2022-10-02T07:10:03.161Z,2.17
2022-10-02T07:11:14.752Z,2.47
2022-10-02T07:12:41.120Z,1.77
2022-10-02T07:13:55.400Z,2.00
2022-10-02T07:15:26.182Z,2.63
2022-10-02T07:16:44.521Z,2.27
2022-10-02T07:17:58.713Z,2.23
2022-10-02T07:19:26.983Z,1.87
2022-10-02T07:20:38.659Z,2.17
2022-10-02T07:22:26.129Z,2.50
2022-10-02T07:23:43.186Z,2.20
2022-10-02T07:25:13.265Z,2.37
2022-10-02T07:26:37.063Z,1.83
2022-10-02T07:28:00.641Z,2.00
2022-10-02T07:29:30.070Z,1.80
2022-10-02T07:30:44.600Z,2.07
2022-10-02T07:32:19.158Z,1.90
2022-10-02T07:33:33.413Z,1.80
2022-10-02T07:35:00.933Z,1.73
2022-10-02T07:36:13.925Z,1.33
2022-10-02T07:37:37.337Z,1.70
2022-10-02T07:39:02.801Z,1.60
2022-10-02T07:40:34.779Z,1.60
2022-10-02T07:41:46.388Z,1.43
2022-10-02T07:43:16.490Z,1.53
2022-10-02T07:44:46.821Z,1.83
2022-10-02T07:46:09.718Z,1.13
2022-10-02T07:47:40.059Z,1.80
2022-10-02T07:48:54.521Z,1.33
2022-10-02T07:50:05.945Z,1.33
2022-10-02T07:51:38.756Z,1.50
2022-10-02T07:53:08.667Z,1.70
2022-10-02T07:54:32.175Z,1.87
2022-10-02T07:55:48.610Z,1.50
2022-10-02T07:57:11.153Z,1.30
2022-10-02T07:58:37.015Z,1.87
2022-10-02T07:59:49.095Z,1.33
2022-10-02T08:01:03.324Z,1.23
2022-10-02T08:02:27.235Z,1.40
2022-10-02T08:03:44.932Z,1.33
2022-10-02T08:05:01.178Z,1.30
2022-10-02T08:06:13.230Z,1.30
2022-10-02T08:07:24.957Z,1.13
2022-10-02T08:08:38.753Z,1.00
2022-10-02T08:09:52.258Z,1.07
2022-10-02T08:11:09.702Z,1.17
2022-10-02T08:12:28.929Z,1.27
2022-10-02T08:13:45.998Z,1.53
2022-10-02T08:14:58.677Z,1.07
2022-10-02T08:16:10.792Z,1.10
2022-10-02T08:17:45.545Z,1.00
2022-10-02T08:19:17.233Z,1.50
2022-10-02T08:20:34.154Z,1.00
2022-10-02T08:21:50.922Z,1.00
2022-10-02T08:23:05.154Z,1.20
2022-10-02T08:24:23.098Z,1.10
2022-10-02T08:25:39.104Z,1.20
2022-10-02T08:26:55.885Z,0.90
2022-10-02T08:28:19.950Z,0.90
2022-10-02T08:29:40.367Z,1.40
2022-10-02T08:30:51.853Z,1.20
2022-10-02T08:32:05.756Z,1.00
2022-10-02T08:33:21.073Z,1.00
2022-10-02T08:34:33.600Z,0.83
2022-10-02T08:35:55.413Z,0.80
2022-10-02T08:37:06.832Z,1.13
2022-10-02T08:38:19.934Z,0.83
2022-10-02T08:39:50.686Z,0.90
2022-10-02T08:41:20.893Z,1.00
2022-10-02T08:42:50.776Z,0.90
2022-10-02T08:44:14.631Z,1.27
2022-10-02T08:45:47.239Z,1.00
2022-10-02T08:47:17.519Z,0.80
2022-10-02T08:48:34.969Z,1.10
2022-10-02T08:50:05.355Z,0.93
2022-10-02T08:51:35.403Z,1.03
2022-10-02T08:53:05.436Z,0.77
2022-10-02T08:54:45.236Z,0.70
2022-10-02T08:56:20.154Z,1.00
2022-10-02T08:57:58.106Z,1.10
2022-10-02T08:59:27.598Z,1.43
2022-10-02T09:00:57.257Z,1.20
2022-10-02T09:02:11.990Z,0.63
2022-10-02T09:03:26.329Z,1.00
2022-10-02T09:04:38.255Z,1.00
2022-10-02T09:05:52.704Z,1.33
2022-10-02T09:07:13.516Z,0.80
2022-10-02T09:08:37.292Z,0.97
2022-10-02T09:09:55.166Z,0.80
2022-10-02T09:11:22.819Z,0.90
2022-10-02T09:12:58.452Z,2.10
2022-10-02T09:14:13.357Z,1.10
2022-10-02T09:15:47.907Z,0.90
2022-10-02T09:17:30.921Z,1.10
2022-10-02T09:18:42.402Z,1.03
2022-10-02T09:20:02.814Z,0.90
2022-10-02T09:21:23.565Z,1.03
2022-10-02T09:22:42.154Z,1.00
2022-10-02T09:24:12.213Z,0.77
2022-10-02T09:25:43.881Z,0.83
2022-10-02T09:26:58.370Z,0.80
2022-10-02T09:28:24.115Z,0.90
2022-10-02T09:30:02.131Z,0.83
2022-10-02T09:31:33.860Z,0.70
2022-10-02T09:33:02.920Z,0.77
2022-10-02T09:34:14.377Z,0.97
2022-10-02T09:35:44.562Z,1.00
2022-10-02T09:36:58.869Z,1.37
2022-10-02T09:38:29.552Z,0.70
2022-10-02T09:39:43.741Z,1.17
2022-10-02T09:41:13.990Z,1.00
2022-10-02T09:42:25.554Z,0.90
2022-10-02T09:44:06.384Z,0.70
2022-10-02T09:45:36.650Z,1.03
2022-10-02T09:47:06.725Z,0.80
2022-10-02T09:48:18.205Z,1.00
2022-10-02T09:49:29.669Z,0.80
2022-10-02T09:51:07.617Z,0.67
2022-10-02T09:52:31.350Z,0.50
2022-10-02T09:53:48.573Z,0.90
2022-10-02T09:55:08.942Z,0.63
2022-10-02T09:56:29.584Z,0.90
2022-10-02T09:58:09.775Z,0.60
2022-10-02T09:59:27.293Z,1.17
2022-10-02T10:00:57.690Z,0.67
2022-10-02T10:02:27.992Z,0.87
2022-10-02T10:03:58.110Z,0.50
2022-10-02T10:05:18.431Z,0.63
2022-10-02T10:06:36.499Z,0.70
2022-10-02T10:07:50.814Z,0.70
2022-10-02T10:09:17.572Z,0.63
2022-10-02T10:10:47.772Z,0.50
2022-10-02T10:12:17.558Z,0.47
2022-10-02T10:13:52.088Z,0.63
2022-10-02T10:15:29.868Z,0.70
2022-10-02T10:16:51.733Z,0.57
2022-10-02T10:18:23.855Z,0.40
2022-10-02T10:19:47.234Z,0.43
2022-10-02T10:21:14.812Z,0.40
2022-10-02T10:22:39.399Z,0.50
2022-10-02T10:23:51.267Z,0.50
2022-10-02T10:25:18.251Z,0.60
2022-10-02T10:26:43.182Z,0.40
2022-10-02T10:28:06.017Z,0.40
2022-10-02T10:29:39.928Z,0.40
2022-10-02T10:31:11.639Z,0.47
2022-10-02T10:32:23.094Z,0.43
2022-10-02T10:33:53.403Z,0.40
2022-10-02T10:35:15.361Z,0.40
2022-10-02T10:36:59.204Z,0.50
2022-10-02T10:38:32.879Z,0.47
2022-10-02T10:39:59.686Z,0.40
2022-10-02T10:41:14.025Z,0.50
2022-10-02T10:43:05.983Z,0.40
2022-10-02T10:44:43.070Z,0.87
2022-10-02T10:46:12.752Z,0.50
2022-10-02T10:47:27.247Z,0.40
2022-10-02T10:49:04.714Z,0.30
2022-10-02T10:50:36.307Z,0.50
2022-10-02T10:51:53.998Z,0.50
2022-10-02T10:53:08.322Z,0.50
2022-10-02T10:54:40.634Z,0.67
2022-10-02T10:56:10.898Z,0.40
2022-10-02T10:57:29.523Z,0.40
2022-10-02T10:58:52.899Z,0.50
2022-10-02T11:00:43.352Z,0.40
2022-10-02T11:01:54.875Z,0.40
2022-10-02T11:03:09.059Z,0.57
2022-10-02T11:04:39.512Z,0.67
2022-10-02T11:06:05.768Z,0.50
2022-10-02T11:07:23.118Z,0.60
2022-10-02T11:08:37.544Z,0.50
2022-10-02T11:09:48.984Z,0.50
2022-10-02T11:11:16.924Z,0.60
2022-10-02T11:12:41.339Z,0.67
2022-10-02T11:13:59.404Z,0.40
2022-10-02T11:15:23.303Z,0.63
2022-10-02T11:16:34.792Z,0.43
2022-10-02T11:17:54.208Z,0.50
2022-10-02T11:19:17.965Z,0.43
2022-10-02T11:20:50.900Z,0.40
2022-10-02T11:22:03.092Z,0.33
2022-10-02T11:23:14.548Z,0.60
2022-10-02T11:24:32.058Z,0.90
2022-10-02T11:26:03.368Z,0.40
2022-10-02T11:27:20.973Z,0.50
2022-10-02T11:28:42.745Z,0.37
2022-10-02T11:30:03.372Z,0.40
2022-10-02T11:31:53.947Z,0.40
2022-10-02T11:33:11.823Z,0.60
2022-10-02T11:34:44.594Z,0.30
2022-10-02T11:36:01.745Z,0.40
2022-10-02T11:37:24.882Z,0.20
2022-10-02T11:38:54.142Z,0.23
2022-10-02T11:40:22.749Z,0.53
2022-10-02T11:41:49.606Z,0.43
2022-10-02T11:43:20.085Z,0.60
2022-10-02T11:44:34.656Z,0.40
2022-10-02T11:46:04.489Z,0.40
2022-10-02T11:47:21.778Z,0.40
2022-10-02T11:48:40.630Z,0.40
2022-10-02T11:50:14.832Z,0.47
2022-10-02T11:51:26.271Z,0.30
2022-10-02T11:53:00.774Z,0.33
2022-10-02T11:54:18.132Z,0.57
2022-10-02T11:55:32.606Z,0.30
2022-10-02T11:56:44.043Z,0.50
2022-10-02T11:58:01.835Z,0.63
2022-10-02T11:59:18.440Z,0.40
2022-10-02T12:00:48.565Z,0.43
2022-10-02T12:02:11.537Z,0.30
2022-10-02T12:03:29.860Z,0.50
2022-10-02T12:05:03.294Z,0.70
2022-10-02T12:06:33.719Z,0.40
2022-10-02T12:07:45.126Z,0.80
2022-10-02T12:09:06.377Z,0.83
2022-10-02T12:10:28.533Z,0.60
2022-10-02T12:11:58.655Z,0.57
2022-10-02T12:13:16.005Z,0.30
2022-10-02T12:14:42.806Z,0.30
2022-10-02T12:16:03.654Z,0.40
2022-10-02T12:17:33.502Z,0.50
2022-10-02T12:18:50.681Z,0.40
2022-10-02T12:20:36.303Z,0.30
2022-10-02T12:22:32.123Z,0.47
2022-10-02T12:24:05.078Z,0.47
2022-10-02T12:25:36.300Z,0.47
2022-10-02T12:27:17.115Z,0.50
2022-10-02T12:28:36.235Z,0.50
2022-10-02T12:30:01.347Z,0.30
2022-10-02T12:31:27.296Z,0.50
2022-10-02T12:32:41.628Z,0.30
2022-10-02T12:33:56.492Z,0.40
2022-10-02T12:35:27.681Z,0.30
2022-10-02T12:36:45.216Z,0.30
2022-10-02T12:38:04.680Z,0.30
2022-10-02T12:39:19.983Z,0.40
2022-10-02T12:40:52.695Z,0.40
2022-10-02T12:42:27.338Z,0.40
2022-10-02T12:43:45.066Z,0.47
2022-10-02T12:45:15.242Z,0.90
2022-10-02T12:46:29.880Z,0.40
2022-10-02T12:47:53.203Z,0.53
2022-10-02T12:49:13.201Z,0.40
2022-10-02T12:50:43.586Z,0.40
2022-10-02T12:51:57.875Z,0.60
2022-10-02T12:53:09.312Z,0.40
2022-10-02T12:54:33.770Z,0.40
2022-10-02T12:55:48.118Z,0.40
2022-10-02T12:57:08.110Z,0.30
2022-10-02T12:58:28.556Z,0.40
2022-10-02T12:59:59.694Z,0.37
2022-10-02T13:01:13.960Z,0.40
2022-10-02T13:02:49.064Z,0.73
2022-10-02T13:04:19.317Z,0.40
2022-10-02T13:05:32.148Z,0.53
2022-10-02T13:07:02.591Z,0.33
2022-10-02T13:08:22.886Z,0.50
2022-10-02T13:09:37.366Z,0.70
2022-10-02T13:10:59.293Z,0.50
2022-10-02T13:12:25.849Z,0.60
2022-10-02T13:13:47.147Z,0.30
2022-10-02T13:15:07.872Z,0.60
2022-10-02T13:16:23.012Z,0.30
2022-10-02T13:17:46.493Z,1.43
2022-10-02T13:19:01.236Z,0.40
2022-10-02T13:20:22.625Z,0.80
2022-10-02T13:21:43.099Z,0.60
2022-10-02T13:23:13.276Z,0.50
2022-10-02T13:24:47.729Z,0.40
2022-10-02T13:25:59.162Z,0.60
2022-10-02T13:27:10.624Z,0.60
2022-10-02T13:28:58.212Z,0.60
2022-10-02T13:30:17.966Z,1.00
2022-10-02T13:31:38.952Z,0.50
2022-10-02T13:32:53.971Z,0.50
2022-10-02T13:34:07.217Z,0.53
2022-10-02T13:35:18.692Z,0.57
2022-10-02T13:36:38.626Z,0.50
2022-10-02T13:37:59.230Z,0.60
2022-10-02T13:39:17.142Z,0.60
2022-10-02T13:40:53.889Z,0.90
2022-10-02T13:42:20.688Z,0.60
2022-10-02T13:43:51.887Z,0.60
2022-10-02T13:45:04.792Z,0.50
2022-10-02T13:46:34.702Z,0.50
2022-10-02T13:47:54.157Z,0.50
2022-10-02T13:49:24.314Z,0.60
2022-10-02T13:50:35.737Z,0.60
2022-10-02T13:52:13.335Z,0.70
2022-10-02T13:53:36.626Z,0.60
2022-10-02T13:55:06.738Z,0.60
2022-10-02T13:56:43.321Z,0.40
2022-10-02T13:58:03.134Z,0.60
2022-10-02T13:59:23.425Z,0.40
2022-10-02T14:00:37.886Z,0.87
2022-10-02T14:01:55.718Z,0.40
2022-10-02T14:03:16.351Z,0.60
2022-10-02T14:04:46.448Z,0.47
2022-10-02T14:05:58.226Z,0.60
2022-10-02T14:07:28.151Z,0.50
2022-10-02T14:08:58.290Z,0.50
2022-10-02T14:10:28.471Z,0.47
2022-10-02T14:11:43.715Z,0.60
2022-10-02T14:12:55.257Z,0.50
2022-10-02T14:14:09.825Z,0.50
2022-10-02T14:15:21.260Z,0.70
2022-10-02T14:16:52.568Z,0.40
2022-10-02T14:18:19.773Z,0.50
2022-10-02T14:19:44.285Z,0.40
2022-10-02T14:20:58.532Z,0.43
2022-10-02T14:22:46.859Z,0.50
2022-10-02T14:24:16.568Z,0.50
2022-10-02T14:25:34.084Z,0.70
2022-10-02T14:27:04.074Z,0.40
2022-10-02T14:28:22.782Z,0.50
2022-10-02T14:29:46.488Z,0.40
2022-10-02T14:30:57.962Z,0.60
2022-10-02T14:32:28.567Z,0.37
2022-10-02T14:33:58.861Z,0.60
2022-10-02T14:35:28.871Z,0.60
2022-10-02T14:36:49.432Z,0.40
2022-10-02T14:38:10.124Z,0.60
2022-10-02T14:39:41.704Z,0.77
2022-10-02T14:40:54.386Z,0.50
2022-10-02T14:42:17.279Z,0.53
2022-10-02T14:43:37.124Z,0.30
2022-10-02T14:45:07.426Z,0.50
2022-10-02T14:46:21.890Z,0.40
2022-10-02T14:47:41.781Z,0.50
2022-10-02T14:48:53.273Z,0.47
2022-10-02T14:50:04.718Z,0.30
2022-10-02T14:51:16.179Z,0.40
2022-10-02T14:52:43.650Z,0.40
2022-10-02T14:54:07.273Z,0.50
2022-10-02T14:55:33.936Z,0.63
2022-10-02T14:56:53.291Z,0.50
2022-10-02T14:58:04.731Z,0.70
2022-10-02T14:59:28.447Z,0.50
2022-10-02T15:00:39.978Z,0.40
2022-10-02T15:02:08.794Z,0.47
2022-10-02T15:03:28.410Z,1.77
2022-10-02T15:04:48.881Z,1.93
2022-10-02T15:06:00.313Z,1.63
2022-10-02T15:07:13.385Z,1.43
2022-10-02T15:08:41.601Z,0.87
2022-10-02T15:09:53.106Z,0.80
2022-10-02T15:11:05.250Z,0.80
2022-10-02T15:12:27.791Z,0.70
2022-10-02T15:14:11.728Z,0.70
2022-10-02T15:15:26.062Z,0.90
2022-10-02T15:17:02.890Z,0.80
2022-10-02T15:18:17.352Z,0.73
2022-10-02T15:19:39.607Z,0.80
2022-10-02T15:20:59.323Z,0.50
2022-10-02T15:22:19.873Z,0.67
2022-10-02T15:23:49.621Z,0.63
2022-10-02T15:25:31.927Z,0.70
2022-10-02T15:26:52.538Z,0.60
2022-10-02T15:28:36.266Z,1.13
2022-10-02T15:29:54.562Z,0.57
2022-10-02T15:31:18.605Z,0.50
2022-10-02T15:32:32.867Z,0.50
2022-10-02T15:33:48.698Z,0.87
2022-10-02T15:35:15.455Z,0.93
2022-10-02T15:37:02.110Z,0.70
2022-10-02T15:38:28.706Z,0.67
2022-10-02T15:39:58.438Z,1.10
2022-10-02T15:41:12.730Z,0.70
2022-10-02T15:42:33.138Z,0.90
2022-10-02T15:44:06.935Z,0.90
2022-10-02T15:45:24.941Z,0.60
2022-10-02T15:46:39.501Z,0.50
2022-10-02T15:48:10.144Z,0.70
2022-10-02T15:49:40.454Z,0.70
2022-10-02T15:51:05.442Z,0.53
2022-10-02T15:52:39.866Z,0.60
2022-10-02T15:54:03.620Z,0.60
2022-10-02T15:55:30.245Z,0.63
2022-10-02T15:56:41.728Z,0.70
2022-10-02T15:58:02.321Z,0.50
2022-10-02T15:59:16.984Z,1.23
2022-10-02T16:00:31.967Z,1.20
2022-10-02T16:01:44.480Z,0.80
2022-10-02T16:03:11.552Z,0.90
2022-10-02T16:04:29.728Z,0.73
2022-10-02T16:05:57.332Z,0.60
2022-10-02T16:07:14.909Z,0.70
2022-10-02T16:08:35.445Z,0.70
2022-10-02T16:10:10.265Z,0.80
2022-10-02T16:11:31.593Z,0.80
2022-10-02T16:12:51.949Z,0.70
2022-10-02T16:14:22.337Z,0.90
2022-10-02T16:16:03.403Z,1.20
2022-10-02T16:17:15.004Z,0.70
2022-10-02T16:18:26.707Z,0.80
2022-10-02T16:19:54.932Z,0.80
2022-10-02T16:21:07.143Z,0.87
2022-10-02T16:22:31.015Z,1.10
2022-10-02T16:24:04.294Z,0.93
2022-10-02T16:25:15.792Z,0.60
2022-10-02T16:26:42.367Z,1.30
2022-10-02T16:28:17.727Z,1.03
2022-10-02T16:29:36.874Z,0.70
2022-10-02T16:30:48.389Z,0.80
2022-10-02T16:32:20.065Z,0.70
2022-10-02T16:33:44.070Z,0.80
2022-10-02T16:35:16.604Z,1.47
2022-10-02T16:36:42.283Z,1.23
2022-10-02T16:38:12.028Z,1.43
2022-10-02T16:39:36.074Z,10.93
2022-10-02T16:40:50.627Z,2.00
2022-10-02T16:42:10.799Z,1.17
2022-10-02T16:43:31.957Z,1.00
2022-10-02T16:45:02.139Z,1.37
2022-10-02T16:46:13.681Z,1.20
2022-10-02T16:47:25.449Z,4.43
2022-10-02T16:48:49.837Z,4.10
2022-10-02T16:50:24.643Z,1.63
2022-10-02T16:51:41.271Z,0.70
2022-10-02T16:52:55.607Z,0.70
2022-10-02T16:54:35.629Z,1.23
2022-10-02T16:55:51.679Z,0.80
2022-10-02T16:57:22.646Z,0.80
2022-10-02T16:58:47.629Z,0.70
2022-10-02T17:00:19.368Z,0.90
2022-10-02T17:01:35.809Z,1.17
2022-10-02T17:02:55.809Z,1.67
2022-10-02T17:04:22.639Z,1.10
2022-10-02T17:05:37.197Z,0.73
2022-10-02T17:06:58.441Z,0.70
2022-10-02T17:08:09.914Z,1.30
2022-10-02T17:09:26.895Z,2.07
2022-10-02T17:10:57.659Z,0.80
2022-10-02T17:12:20.487Z,1.00
2022-10-02T17:13:45.243Z,1.00
2022-10-02T17:15:05.439Z,0.80
2022-10-02T17:16:23.645Z,1.07
2022-10-02T17:17:47.897Z,1.10
2022-10-02T17:19:22.961Z,0.77
2022-10-02T17:20:40.667Z,1.43
2022-10-02T17:21:55.407Z,0.93
2022-10-02T17:23:13.019Z,1.20
2022-10-02T17:24:30.406Z,0.90
2022-10-02T17:26:03.509Z,0.90
2022-10-02T17:27:33.493Z,0.60
2022-10-02T17:28:48.819Z,0.70
2022-10-02T17:30:27.589Z,1.20
2022-10-02T17:31:39.454Z,0.77
2022-10-02T17:33:14.452Z,0.87
2022-10-02T17:34:33.204Z,0.63
2022-10-02T17:35:48.985Z,0.80
2022-10-02T17:37:21.121Z,1.00
2022-10-02T17:38:54.458Z,14.30
2022-10-02T17:40:05.902Z,13.50
2022-10-02T17:41:29.351Z,11.53
2022-10-02T17:42:47.260Z,36.70
2022-10-02T17:43:58.691Z,10.67
2022-10-02T17:45:16.360Z,9.00
2022-10-02T17:46:49.463Z,9.53
2022-10-02T17:48:10.403Z,12.33
2022-10-02T17:49:21.994Z,14.17
2022-10-02T17:50:52.634Z,9.53
2022-10-02T17:52:35.252Z,7.43
2022-10-02T17:54:08.246Z,6.57
2022-10-02T17:55:50.843Z,4.93
2022-10-02T17:57:21.183Z,4.70
2022-10-02T17:58:42.605Z,3.63
2022-10-02T18:00:11.422Z,3.50
2022-10-02T18:01:28.924Z,3.67
2022-10-02T18:02:46.602Z,2.47